(°C)
12°
12°
12°
13°
14°
15°
16°
(°C)
10°
10°
11°
11°
12°
13°
14°
DNy
DDN
DDN
DDN
DDN
DDN
DNy
(km/h)
3-7
4-8
5-9
6-10
6-11
7-13
8-15
(mm)
0
0
0
0
0
0
0
(%)
23
30
20
10
0
0
0

Napfelkelte

/ 22.3°
sun-icon
UV 4
05:20
20:50
Hold (fogyó sarló) (291°)
03:15
14:48

METAR Renton (KRNT)-ért

Idő Feltételek Hőmérséklet/
Harmatpont
Szél Látási viszonyok Időjárás Felhők Légnyomás Módosítás Nyers
MVFR 11.7°C / 7.8°C variable 0kt >10km - Scattered Clouds 1600ft
Overcast 2500ft
1020 - KRNT 241353Z AUTO 00000KT 10SM SCT016 OVC025 12/08 A3011 RMK AO2 SLP201 T01170078
MVFR 11.7°C / 7.8°C 300º 4kt >10km - Broken Clouds 1900ft
Overcast 2700ft
1020 - KRNT 241253Z AUTO 30004KT 10SM BKN019 OVC027 12/08 A3014 RMK AO2 SLP209 T01170078
MVFR 12.2°C / 7.8°C 270º 3kt >10km - Overcast 1800ft 1020 - KRNT 241153Z AUTO 27003KT 10SM OVC018 12/08 A3014 RMK AO2 SLP209 T01220078 10150 20122 58006
MVFR 12.2°C / 8.3°C 240º 3kt >10km - Few Clouds 1700ft
Overcast 2600ft
1021 - KRNT 241053Z AUTO 24003KT 10SM FEW017 OVC026 12/08 A3014 RMK AO2 SLP212 T01220083
MVFR 12.8°C / 8.3°C variable 0kt >10km - Overcast 1900ft 1021 - KRNT 240953Z AUTO 00000KT 10SM OVC019 13/08 A3015 RMK AO2 SLP215 T01280083
MVFR 12.8°C / 8.3°C variable 0kt >10km - Broken Clouds 2000ft - KRNT 240939Z AUTO 00000KT 10SM BKN020 13/08 A3015 RMK AO2 T01280083
VFR 12.8°C / 8.3°C variable 0kt >10km - Few Clouds 5500ft
Overcast 7000ft
1021 - KRNT 240853Z AUTO 00000KT 10SM FEW055 OVC070 13/08 A3015 RMK AO2 SLP215 T01280083 58000
VFR 12.8°C / 8.3°C 180º 4kt >10km - Broken Clouds 4500ft
Broken Clouds 5000ft
1021 - KRNT 240753Z AUTO 18004KT 10SM BKN045 BKN050 13/08 A3015 RMK AO2 SLP216 T01280083 402000122
VFR 13.9°C / 8.9°C 200º 6kt >10km - Broken Clouds 4500ft
Broken Clouds 6000ft
1021 - KRNT 240653Z AUTO 20006KT 10SM BKN045 BKN060 14/09 A3016 RMK AO2 SLP216 T01390089
VFR 15°C / 6.7°C variable 0kt >10km - Overcast 4400ft 1021 - KRNT 240553Z AUTO 00000KT 10SM OVC044 15/07 A3015 RMK AO2 SLP216 T01500067 10194 20150 50004
VFR 15.6°C / 7.2°C 20º 3kt >10km - Broken Clouds 4100ft 1021 - KRNT 240453Z AUTO 02003KT 10SM BKN041 16/07 A3016 RMK AO2 SLP217 T01560072
VFR 16.1°C / 7.2°C 350º 7kt >10km - Scattered Clouds 4100ft
Broken Clouds 5000ft
Overcast 6000ft
1021 - KRNT 240353Z AUTO 35007KT 10SM SCT041 BKN050 OVC060 16/07 A3015 RMK AO2 SLP215 T01610072
VFR 17.2°C / 7.8°C 320º 5kt >10km - Few Clouds 6000ft 1021 - KRNT 240253Z 32005KT 10SM FEW060 17/08 A3014 RMK AO2 SLP212 T01720078 55004
VFR 17.8°C / 7.8°C 330º 8kt >10km - Few Clouds 4500ft
Few Clouds 7000ft
1021 - KRNT 240153Z 33008KT 10SM FEW045 FEW070 18/08 A3014 RMK AO2 SLP211 T01780078
VFR 18.3°C / 7.8°C 330º 7kt >10km - Scattered Clouds 6500ft
Overcast 9000ft
1021 - KRNT 240053Z 33007KT 10SM SCT065 OVC090 18/08 A3015 RMK AO2 SLP213 T01830078
VFR 18.3°C / 7.8°C 360º 5kt >10km - Overcast 6000ft 1021 - KRNT 232353Z 36005KT 10SM OVC060 18/08 A3015 RMK AO2 SLP216 T01830078 10200 20150 58009
VFR 18.9°C / 5.6°C 270º 3kt >10km - Broken Clouds 5500ft
Broken Clouds 7000ft
1021 - KRNT 232253Z 27003KT 10SM BKN055 BKN070 19/06 A3016 RMK AO2 SLP218 T01890056
VFR 18.9°C / 6.7°C variable 0kt >10km - Few Clouds 7500ft 1022 - KRNT 232153Z 00000KT 10SM FEW075 19/07 A3017 RMK AO2 SLP223 T01890067
VFR 17.8°C / 6.7°C variable 5kt >10km - Clear 1022 - KRNT 232053Z VRB05KT 10SM CLR 18/07 A3018 RMK AO2 SLP225 T01780067 58006
VFR 16.7°C / 7.2°C 190º 5kt Gust 17kt >10km - Overcast 7500ft 1023 - KRNT 231953Z 19005G17KT 10SM OVC075 17/07 A3020 RMK AO2 SLP232 T01670072
VFR 15.6°C / 8.3°C 180º 6kt >10km - Broken Clouds 7000ft
Overcast 9000ft
1023 - KRNT 231853Z 18006KT 10SM BKN070 OVC090 16/08 A3020 RMK AO2 SLP232 T01560083
VFR 15.6°C / 8.3°C 210º 5kt >10km - Overcast 8000ft 1023 - KRNT 231753Z 21005KT 10SM OVC080 16/08 A3020 RMK AO2 SLP231 T01560083 10156 20122 50000
VFR 13.9°C / 7.8°C 240º 7kt >10km - Overcast 7500ft 1023 - KRNT 231653Z AUTO 24007KT 10SM OVC075 14/08 A3021 RMK AO2 SLP233 T01390078
VFR 13.9°C / 8.3°C 210º 6kt >10km - Overcast 8000ft 1023 - KRNT 231553Z AUTO 21006KT 10SM OVC080 14/08 A3021 RMK AO2 SLP233 T01390083

MVFR

11.7°C / 7.8°C

[Több]
Szél variable 0kt
Látási viszonyok >10km
Időjárás -
Felhők Scattered Clouds 1600ft
Overcast 2500ft
Légnyomás 1020
Módosítás -
Nyers KRNT 241353Z AUTO 00000KT 10SM SCT016 OVC025 12/08 A3011 RMK AO2 SLP201 T01170078

MVFR

11.7°C / 7.8°C

[Több]
Szél 300º 4kt
Látási viszonyok >10km
Időjárás -
Felhők Broken Clouds 1900ft
Overcast 2700ft
Légnyomás 1020
Módosítás -
Nyers KRNT 241253Z AUTO 30004KT 10SM BKN019 OVC027 12/08 A3014 RMK AO2 SLP209 T01170078

MVFR

12.2°C / 7.8°C

[Több]
Szél 270º 3kt
Látási viszonyok >10km
Időjárás -
Felhők Overcast 1800ft
Légnyomás 1020
Módosítás -
Nyers KRNT 241153Z AUTO 27003KT 10SM OVC018 12/08 A3014 RMK AO2 SLP209 T01220078 10150 20122 58006

MVFR

12.2°C / 8.3°C

[Több]
Szél 240º 3kt
Látási viszonyok >10km
Időjárás -
Felhők Few Clouds 1700ft
Overcast 2600ft
Légnyomás 1021
Módosítás -
Nyers KRNT 241053Z AUTO 24003KT 10SM FEW017 OVC026 12/08 A3014 RMK AO2 SLP212 T01220083

MVFR

12.8°C / 8.3°C

[Több]
Szél variable 0kt
Látási viszonyok >10km
Időjárás -
Felhők Overcast 1900ft
Légnyomás 1021
Módosítás -
Nyers KRNT 240953Z AUTO 00000KT 10SM OVC019 13/08 A3015 RMK AO2 SLP215 T01280083

MVFR

12.8°C / 8.3°C

[Több]
Szél variable 0kt
Látási viszonyok >10km
Időjárás -
Felhők Broken Clouds 2000ft
Légnyomás
Módosítás -
Nyers KRNT 240939Z AUTO 00000KT 10SM BKN020 13/08 A3015 RMK AO2 T01280083

VFR

12.8°C / 8.3°C

[Több]
Szél variable 0kt
Látási viszonyok >10km
Időjárás -
Felhők Few Clouds 5500ft
Overcast 7000ft
Légnyomás 1021
Módosítás -
Nyers KRNT 240853Z AUTO 00000KT 10SM FEW055 OVC070 13/08 A3015 RMK AO2 SLP215 T01280083 58000

VFR

12.8°C / 8.3°C

[Több]
Szél 180º 4kt
Látási viszonyok >10km
Időjárás -
Felhők Broken Clouds 4500ft
Broken Clouds 5000ft
Légnyomás 1021
Módosítás -
Nyers KRNT 240753Z AUTO 18004KT 10SM BKN045 BKN050 13/08 A3015 RMK AO2 SLP216 T01280083 402000122

VFR

13.9°C / 8.9°C

[Több]
Szél 200º 6kt
Látási viszonyok >10km
Időjárás -
Felhők Broken Clouds 4500ft
Broken Clouds 6000ft
Légnyomás 1021
Módosítás -
Nyers KRNT 240653Z AUTO 20006KT 10SM BKN045 BKN060 14/09 A3016 RMK AO2 SLP216 T01390089

VFR

15°C / 6.7°C

[Több]
Szél variable 0kt
Látási viszonyok >10km
Időjárás -
Felhők Overcast 4400ft
Légnyomás 1021
Módosítás -
Nyers KRNT 240553Z AUTO 00000KT 10SM OVC044 15/07 A3015 RMK AO2 SLP216 T01500067 10194 20150 50004

VFR

15.6°C / 7.2°C

[Több]
Szél 20º 3kt
Látási viszonyok >10km
Időjárás -
Felhők Broken Clouds 4100ft
Légnyomás 1021
Módosítás -
Nyers KRNT 240453Z AUTO 02003KT 10SM BKN041 16/07 A3016 RMK AO2 SLP217 T01560072

VFR

16.1°C / 7.2°C

[Több]
Szél 350º 7kt
Látási viszonyok >10km
Időjárás -
Felhők Scattered Clouds 4100ft
Broken Clouds 5000ft
Overcast 6000ft
Légnyomás 1021
Módosítás -
Nyers KRNT 240353Z AUTO 35007KT 10SM SCT041 BKN050 OVC060 16/07 A3015 RMK AO2 SLP215 T01610072

VFR

17.2°C / 7.8°C

[Több]
Szél 320º 5kt
Látási viszonyok >10km
Időjárás -
Felhők Few Clouds 6000ft
Légnyomás 1021
Módosítás -
Nyers KRNT 240253Z 32005KT 10SM FEW060 17/08 A3014 RMK AO2 SLP212 T01720078 55004

VFR

17.8°C / 7.8°C

[Több]
Szél 330º 8kt
Látási viszonyok >10km
Időjárás -
Felhők Few Clouds 4500ft
Few Clouds 7000ft
Légnyomás 1021
Módosítás -
Nyers KRNT 240153Z 33008KT 10SM FEW045 FEW070 18/08 A3014 RMK AO2 SLP211 T01780078

VFR

18.3°C / 7.8°C

[Több]
Szél 330º 7kt
Látási viszonyok >10km
Időjárás -
Felhők Scattered Clouds 6500ft
Overcast 9000ft
Légnyomás 1021
Módosítás -
Nyers KRNT 240053Z 33007KT 10SM SCT065 OVC090 18/08 A3015 RMK AO2 SLP213 T01830078

VFR

18.3°C / 7.8°C

[Több]
Szél 360º 5kt
Látási viszonyok >10km
Időjárás -
Felhők Overcast 6000ft
Légnyomás 1021
Módosítás -
Nyers KRNT 232353Z 36005KT 10SM OVC060 18/08 A3015 RMK AO2 SLP216 T01830078 10200 20150 58009

VFR

18.9°C / 5.6°C

[Több]
Szél 270º 3kt
Látási viszonyok >10km
Időjárás -
Felhők Broken Clouds 5500ft
Broken Clouds 7000ft
Légnyomás 1021
Módosítás -
Nyers KRNT 232253Z 27003KT 10SM BKN055 BKN070 19/06 A3016 RMK AO2 SLP218 T01890056

VFR

18.9°C / 6.7°C

[Több]
Szél variable 0kt
Látási viszonyok >10km
Időjárás -
Felhők Few Clouds 7500ft
Légnyomás 1022
Módosítás -
Nyers KRNT 232153Z 00000KT 10SM FEW075 19/07 A3017 RMK AO2 SLP223 T01890067

VFR

17.8°C / 6.7°C

[Több]
Szél variable 5kt
Látási viszonyok >10km
Időjárás -
Felhők Clear
Légnyomás 1022
Módosítás -
Nyers KRNT 232053Z VRB05KT 10SM CLR 18/07 A3018 RMK AO2 SLP225 T01780067 58006

VFR

16.7°C / 7.2°C

[Több]
Szél 190º 5kt Gust 17kt
Látási viszonyok >10km
Időjárás -
Felhők Overcast 7500ft
Légnyomás 1023
Módosítás -
Nyers KRNT 231953Z 19005G17KT 10SM OVC075 17/07 A3020 RMK AO2 SLP232 T01670072

VFR

15.6°C / 8.3°C

[Több]
Szél 180º 6kt
Látási viszonyok >10km
Időjárás -
Felhők Broken Clouds 7000ft
Overcast 9000ft
Légnyomás 1023
Módosítás -
Nyers KRNT 231853Z 18006KT 10SM BKN070 OVC090 16/08 A3020 RMK AO2 SLP232 T01560083

VFR

15.6°C / 8.3°C

[Több]
Szél 210º 5kt
Látási viszonyok >10km
Időjárás -
Felhők Overcast 8000ft
Légnyomás 1023
Módosítás -
Nyers KRNT 231753Z 21005KT 10SM OVC080 16/08 A3020 RMK AO2 SLP231 T01560083 10156 20122 50000

VFR

13.9°C / 7.8°C

[Több]
Szél 240º 7kt
Látási viszonyok >10km
Időjárás -
Felhők Overcast 7500ft
Légnyomás 1023
Módosítás -
Nyers KRNT 231653Z AUTO 24007KT 10SM OVC075 14/08 A3021 RMK AO2 SLP233 T01390078

VFR

13.9°C / 8.3°C

[Több]
Szél 210º 6kt
Látási viszonyok >10km
Időjárás -
Felhők Overcast 8000ft
Légnyomás 1023
Módosítás -
Nyers KRNT 231553Z AUTO 21006KT 10SM OVC080 14/08 A3021 RMK AO2 SLP233 T01390083

Radarkép és ultrarövid távú csapadék-előrejelzés a következő helyhez: Renton

Szitáló eső
Enyhe
Mérsékelt
Erős
Nagyon nehéz
Jégeső

A helyzetjelző helye: Renton. Ez az animáció bemutatja a csapadékradart az elmúlt órára vonatkozóan, valamint előrejelzést az elkövetkező 1 órára. A szitáló eső vagy enyhe hóesés láthatatlan lehet a radar számára. A csapadék intenzitása színkóddal van jelölve, a világoskéktől a narancssárgáig.

Aktuális műholdas képek ezen a helyen: Renton, USA

A helyszín jelölő a következő helyen van elhelyezve: Renton. [Több]

A valós idejű műholdas kép ötvözi a nappali látható fényt az éjszakai infravörös sugárzással. Éjjel a kép nem sötét, mivel az infravörös sugárzás képes érzékelni a hőmérséklet-különbségeket. Sajnos az alacsony felhőket és a ködöt nehéz megkülönböztetni a talaj hőmérsékletétől, így az éjszaka folyamán szinte láthatatlanok lehetnek. A Meteosat európai műholdképei valós időben frissülnek minden 5 percben. A GOES-16/GOES-17 (Észak- és Dél-Amerika) és Himawari (Ázsia) képei 10 percenként frissülnek.

Vissza a tetejére